EEKE

Kuressaare Airport

Kuressaare, Estonia
TAF EEKE 221500Z 2216/2222 18012KT 9999 SCT005 BKN025 TEMPO 2216/2222 2000 SN BR BKN003 OVC012
Issued Valid From Valid To
Jan-22 @ 15:00 UTC
(3 hours ago)
Jan-22 @ 16:00 UTC
(2 hours ago)
Jan-22 @ 22:00 UTC
(in 4 hours)
Jan-22 @ 16:00 to Jan-22 @ 22:00
TAF EEKE 221500Z 2216/2222 18012KT 9999 SCT005 BKN025
Wind Visibility Clouds
180° at 12 knots 10,000+ meters
  • Scattered at 500' AGL
  • Broken at 2,500' AGL
Temporary Jan-22 @ 16:00 to Jan-22 @ 22:00
TEMPO 2216/2222 2000 SN BR BKN003 OVC012
Visibility Clouds Conditions
1,996 meters
  • Broken at 300' AGL
  • Overcast at 1,200' AGL
  • Snow
  • Mist
TAF EEKE 221500Z 2216/2222 18012KT 9999 SCT005 BKN025 TEMPO 2216/2222 2000 SN BR BKN003 OVC012
Issued Jan-22 @ 15:00 UTC
(3 hours ago)
Valid From Jan-22 @ 16:00 UTC
(2 hours ago)
Valid To Jan-22 @ 22:00 UTC
(in 4 hours)
Jan-22 @ 16:00 - Jan-22 @ 22:00
Wind Visibility
180° at 12 knots 10,000+ meters
Clouds
  • Scattered at 500' AGL
  • Broken at 2,500' AGL
Temporary Jan-22 @ 16:00 - Jan-22 @ 22:00
Clouds
  • Broken at 300' AGL
  • Overcast at 1,200' AGL
Conditions
  • Snow
  • Mist